createdAt,value
2023-01-21T00:00:06.629Z,98.17
2023-01-21T00:02:39.784Z,97.93
2023-01-21T00:05:09.995Z,97.84
2023-01-21T00:07:41.052Z,97.84
2023-01-21T00:10:11.710Z,97.41
2023-01-21T00:12:43.293Z,97.85
2023-01-21T00:15:13.789Z,97.24
2023-01-21T00:17:44.327Z,97.17
2023-01-21T00:20:15.360Z,97.08
2023-01-21T00:22:49.017Z,97.28
2023-01-21T00:25:19.201Z,96.52
2023-01-21T00:27:50.076Z,96.52
2023-01-21T00:30:20.408Z,96.96
2023-01-21T00:32:55.130Z,96.96
2023-01-21T00:35:25.845Z,97.17
2023-01-21T00:37:56.874Z,97.03
2023-01-21T00:40:28.015Z,96.97
2023-01-21T00:42:58.372Z,96.84
2023-01-21T00:45:29.980Z,96.54
2023-01-21T00:48:00.641Z,96.93
2023-01-21T00:50:30.972Z,96.96
2023-01-21T00:53:01.667Z,96.89
2023-01-21T00:55:34.896Z,96.77
2023-01-21T00:58:05.461Z,96.87
2023-01-21T01:00:35.856Z,96.53
2023-01-21T01:03:07.049Z,96.66
2023-01-21T01:05:37.493Z,96.59
2023-01-21T01:08:10.753Z,96.03
2023-01-21T01:10:42.390Z,96.85
2023-01-21T01:13:12.997Z,95.93
2023-01-21T01:15:43.486Z,96.19
2023-01-21T01:18:13.885Z,94.83
2023-01-21T03:38:28.156Z,99.75
2023-01-21T03:41:19.293Z,99.66
2023-01-21T03:43:50.393Z,99.61
2023-01-21T03:46:23.857Z,99.61
2023-01-21T03:49:08.128Z,99.31
2023-01-21T03:51:42.001Z,98.23
2023-01-21T03:54:12.910Z,98.38
2023-01-21T03:56:43.857Z,98.14
2023-01-21T03:59:14.165Z,97.43
2023-01-21T04:01:44.840Z,98.12
2023-01-21T04:04:15.721Z,98.02
2023-01-21T04:06:46.145Z,97.47
2023-01-21T04:09:16.472Z,98.35
2023-01-21T04:11:46.928Z,98.25
2023-01-21T04:14:17.295Z,98.02
2023-01-21T08:09:01.429Z,98.28
2023-01-21T08:11:33.389Z,97.84
2023-01-21T08:14:03.864Z,96.93
2023-01-21T08:16:34.918Z,96.93
2023-01-21T08:19:06.514Z,95.87
2023-01-21T08:21:36.824Z,95.87
2023-01-21T08:24:10.121Z,96.49
2023-01-21T08:26:40.515Z,97.02
2023-01-21T08:29:10.989Z,97.02
2023-01-21T08:31:45.430Z,97.41
2023-01-21T08:34:16.695Z,98.07
2023-01-21T08:36:47.481Z,98.07
2023-01-21T08:39:18.607Z,96.81
2023-01-21T08:41:49.179Z,96.81
2023-01-21T08:44:20.716Z,97.12
2023-01-21T08:46:51.124Z,97.12
2023-01-21T08:49:21.691Z,97.33
2023-01-21T08:51:52.282Z,97.47
2023-01-21T08:54:22.941Z,98.02
2023-01-21T08:56:59.090Z,97.08
2023-01-21T08:59:32.987Z,98.07
2023-01-21T09:02:05.190Z,97.48
2023-01-21T09:04:35.748Z,97.98
2023-01-21T09:07:06.892Z,97.98
2023-01-21T09:09:38.938Z,97.20
2023-01-21T09:12:09.498Z,97.13
2023-01-21T09:14:39.920Z,96.46
2023-01-21T09:17:16.165Z,96.48
2023-01-21T09:19:46.940Z,97.16
2023-01-21T09:22:18.186Z,96.86
2023-01-21T09:24:50.398Z,96.97
2023-01-21T09:27:20.828Z,96.62
2023-01-21T09:29:53.064Z,96.01
2023-01-21T09:32:23.508Z,97.80
2023-01-21T09:34:54.263Z,96.55
2023-01-21T09:37:24.956Z,96.63
2023-01-21T09:39:58.025Z,98.11
2023-01-21T09:42:31.867Z,97.36
2023-01-21T09:45:04.368Z,96.18
2023-01-21T09:48:02.083Z,96.03
2023-01-21T09:50:34.377Z,96.33
2023-01-21T09:56:38.665Z,97.29
2023-01-21T09:59:12.088Z,96.79
2023-01-21T10:01:48.455Z,96.60
2023-01-21T10:07:27.106Z,96.05
2023-01-21T10:10:30.015Z,95.21
2023-01-21T10:13:21.941Z,95.87
2023-01-21T10:16:19.012Z,96.30
2023-01-21T10:18:52.311Z,96.30
2023-01-21T10:21:38.864Z,97.08
2023-01-21T10:24:12.281Z,97.08
2023-01-21T10:26:47.244Z,98.65
2023-01-21T10:29:22.521Z,98.65
2023-01-21T10:31:59.203Z,99.38
2023-01-21T10:34:33.106Z,99.49
2023-01-21T10:37:35.744Z,100.00
2023-01-21T10:40:15.292Z,100.00
2023-01-21T10:43:00.871Z,99.44
2023-01-21T10:45:48.631Z,99.21
2023-01-21T10:48:30.725Z,99.21
2023-01-21T10:51:04.091Z,98.75
2023-01-21T10:53:40.234Z,98.10
2023-01-21T10:56:32.642Z,98.10
2023-01-21T10:59:15.294Z,98.01
2023-01-21T11:01:47.218Z,97.37
2023-01-21T11:04:25.900Z,99.21
2023-01-21T11:07:25.199Z,97.39
2023-01-21T11:09:57.627Z,97.24
2023-01-21T11:12:28.152Z,97.17
2023-01-21T11:15:02.522Z,98.05
2023-01-21T11:17:41.516Z,98.08
2023-01-21T11:20:24.131Z,98.62
2023-01-21T11:22:54.701Z,98.62
2023-01-21T11:25:41.772Z,100.00
2023-01-21T11:31:27.648Z,99.97
2023-01-21T11:34:15.979Z,99.95
2023-01-21T11:37:03.718Z,99.53
2023-01-21T11:39:40.559Z,100.00
2023-01-21T11:42:20.226Z,100.00
2023-01-21T11:45:21.874Z,100.00
2023-01-21T11:47:52.549Z,100.00
2023-01-21T11:50:32.605Z,100.00
2023-01-21T11:53:19.696Z,100.00
2023-01-21T11:55:54.729Z,100.00
2023-01-21T11:58:31.218Z,100.00
2023-01-21T12:01:08.162Z,100.00
2023-01-21T12:03:44.760Z,100.00
2023-01-21T12:06:24.202Z,100.00
2023-01-21T12:09:18.121Z,100.00
2023-01-21T12:11:51.334Z,100.00
2023-01-21T12:17:25.707Z,100.00
2023-01-21T12:20:19.837Z,100.00
2023-01-21T12:23:09.985Z,100.00
2023-01-21T12:25:43.372Z,100.00
2023-01-21T12:28:18.138Z,100.00
2023-01-21T12:34:11.476Z,100.00
2023-01-21T12:36:47.903Z,100.00
2023-01-21T12:39:40.394Z,100.00
2023-01-21T12:42:58.743Z,100.00
2023-01-21T12:45:10.067Z,100.00
2023-01-21T12:48:04.401Z,100.00
2023-01-21T12:51:04.515Z,100.00
2023-01-21T12:53:19.443Z,100.00
2023-01-21T12:56:36.718Z,100.00
2023-01-21T12:59:25.577Z,100.00
2023-01-21T13:02:19.221Z,100.00
2023-01-21T13:08:46.706Z,100.00
2023-01-21T13:11:32.574Z,100.00
2023-01-21T13:14:10.075Z,100.00
2023-01-21T16:58:03.741Z,100.00
2023-01-21T17:00:37.824Z,100.00
2023-01-21T17:03:12.026Z,100.00
2023-01-21T17:05:47.794Z,100.00
2023-01-21T17:08:21.551Z,100.00
2023-01-21T17:11:07.072Z,100.00
2023-01-21T17:13:43.524Z,100.00
2023-01-21T17:16:28.564Z,100.00
2023-01-21T17:19:05.441Z,100.00
2023-01-21T17:21:41.973Z,100.00
2023-01-21T17:24:32.207Z,100.00
2023-01-21T17:27:06.152Z,100.00
2023-01-21T17:29:38.718Z,100.00
2023-01-21T17:32:35.556Z,100.00
2023-01-21T17:35:12.329Z,100.00
2023-01-21T17:38:18.525Z,100.00
2023-01-21T17:41:06.743Z,100.00
2023-01-21T17:43:39.698Z,100.00
2023-01-21T17:46:14.599Z,100.00
2023-01-21T17:49:04.895Z,100.00
2023-01-21T17:51:41.580Z,100.00
2023-01-21T17:54:26.891Z,100.00
2023-01-21T17:57:06.724Z,100.00
2023-01-21T17:59:40.669Z,100.00
2023-01-21T18:02:15.499Z,100.00
2023-01-21T18:04:47.020Z,100.00
2023-01-21T18:07:22.690Z,100.00
2023-01-21T18:12:44.790Z,100.00
2023-01-21T18:15:17.584Z,100.00
2023-01-21T18:17:51.803Z,100.00
2023-01-21T18:20:25.335Z,100.00
2023-01-21T18:22:59.515Z,100.00
2023-01-21T18:25:30.579Z,100.00
2023-01-21T18:28:01.127Z,100.00
2023-01-21T18:30:32.195Z,100.00
2023-01-21T18:33:06.195Z,100.00
2023-01-21T18:35:39.952Z,100.00
2023-01-21T18:38:17.150Z,100.00
2023-01-21T18:40:49.103Z,100.00
2023-01-21T18:43:19.665Z,100.00
2023-01-21T18:45:51.764Z,100.00
2023-01-21T18:48:25.498Z,100.00
2023-01-21T18:51:03.287Z,100.00
2023-01-21T18:53:34.439Z,100.00
2023-01-21T18:56:08.615Z,100.00
2023-01-21T18:58:39.508Z,100.00
2023-01-21T19:01:22.636Z,100.00
2023-01-21T19:03:46.789Z,100.00
2023-01-21T19:06:26.403Z,100.00
2023-01-21T19:09:04.810Z,100.00
2023-01-21T19:11:40.172Z,100.00
2023-01-21T19:14:15.195Z,100.00
2023-01-21T19:16:46.746Z,100.00
2023-01-21T19:19:17.807Z,100.00
2023-01-21T19:21:48.287Z,100.00
2023-01-21T19:24:18.711Z,100.00
2023-01-21T19:26:49.800Z,100.00
2023-01-21T19:29:22.599Z,100.00
2023-01-21T19:31:53.609Z,100.00
2023-01-21T19:34:24.071Z,100.00
2023-01-21T19:36:54.595Z,100.00
2023-01-21T19:39:26.279Z,100.00
2023-01-21T19:42:08.347Z,100.00
2023-01-21T19:44:33.857Z,100.00
2023-01-21T19:47:25.883Z,100.00
2023-01-21T19:49:56.228Z,100.00
2023-01-21T19:52:26.801Z,100.00
2023-01-21T19:54:57.439Z,100.00
2023-01-21T19:57:29.605Z,100.00
2023-01-21T20:00:03.089Z,100.00
2023-01-21T20:02:33.981Z,100.00
2023-01-21T20:05:04.876Z,100.00
2023-01-21T20:07:37.954Z,100.00
2023-01-21T20:10:36.222Z,100.00
2023-01-21T20:13:04.661Z,100.00
2023-01-21T20:15:38.548Z,100.00
2023-01-21T20:18:14.478Z,100.00
2023-01-21T20:20:50.555Z,100.00
2023-01-21T20:23:23.160Z,100.00
2023-01-21T20:25:59.394Z,100.00
2023-01-21T20:28:46.621Z,100.00
2023-01-21T20:31:19.597Z,100.00
2023-01-21T20:33:50.857Z,100.00
2023-01-21T20:36:28.057Z,100.00
2023-01-21T20:38:59.467Z,100.00
2023-01-21T20:41:35.827Z,100.00
2023-01-21T20:44:07.597Z,100.00
2023-01-21T20:46:43.659Z,100.00
2023-01-21T20:49:15.071Z,100.00
2023-01-21T20:51:46.179Z,100.00
2023-01-21T20:54:17.054Z,100.00
2023-01-21T20:56:48.332Z,100.00
2023-01-21T20:59:21.855Z,100.00
2023-01-21T21:02:01.792Z,100.00
2023-01-21T21:04:28.013Z,100.00
2023-01-21T21:06:59.792Z,100.00
2023-01-21T21:09:30.953Z,100.00
2023-01-21T21:12:02.702Z,100.00
2023-01-21T21:14:34.477Z,100.00
2023-01-21T21:17:15.947Z,100.00
2023-01-21T21:20:04.724Z,100.00
2023-01-21T21:22:36.499Z,100.00
2023-01-21T21:25:08.759Z,100.00
2023-01-21T21:27:40.920Z,100.00
2023-01-21T21:30:18.236Z,100.00
2023-01-21T21:32:52.062Z,100.00
2023-01-21T21:35:33.914Z,100.00
2023-01-21T21:38:10.361Z,100.00
2023-01-21T21:40:50.566Z,100.00
2023-01-21T21:43:26.330Z,100.00
2023-01-21T21:46:23.775Z,100.00
2023-01-21T21:55:15.761Z,100.00
2023-01-21T21:57:55.877Z,100.00
2023-01-21T22:00:32.016Z,100.00
2023-01-21T22:03:03.474Z,100.00
2023-01-21T22:05:34.409Z,100.00
2023-01-21T22:08:06.728Z,100.00
2023-01-21T22:10:37.825Z,100.00
2023-01-21T22:13:08.711Z,100.00
2023-01-21T22:15:41.972Z,100.00
2023-01-21T22:18:18.153Z,100.00
2023-01-21T22:20:53.652Z,100.00
2023-01-21T22:23:38.816Z,100.00
2023-01-21T22:26:13.128Z,100.00
2023-01-21T22:28:44.184Z,100.00
2023-01-21T22:31:18.399Z,100.00
2023-01-21T22:33:49.435Z,100.00
2023-01-21T22:36:22.275Z,100.00
2023-01-21T22:38:53.464Z,100.00
2023-01-21T22:41:25.083Z,100.00
2023-01-21T22:43:55.675Z,100.00
2023-01-21T22:46:28.678Z,100.00
2023-01-21T22:48:59.750Z,100.00
2023-01-21T22:51:31.099Z,100.00
2023-01-21T22:54:01.568Z,100.00
2023-01-21T22:56:51.136Z,100.00
2023-01-21T22:59:08.485Z,100.00
2023-01-21T23:01:40.720Z,100.00
2023-01-21T23:04:22.551Z,100.00
2023-01-21T23:06:53.626Z,100.00
2023-01-21T23:09:28.471Z,100.00
2023-01-21T23:11:58.971Z,100.00
2023-01-21T23:14:29.850Z,100.00
2023-01-21T23:17:00.314Z,100.00
2023-01-21T23:19:34.090Z,100.00
2023-01-21T23:22:15.153Z,100.00
2023-01-21T23:24:45.419Z,100.00
2023-01-21T23:27:15.937Z,100.00
2023-01-21T23:29:46.906Z,100.00
2023-01-21T23:32:17.467Z,100.00
2023-01-21T23:34:48.427Z,100.00
2023-01-21T23:37:20.350Z,100.00
2023-01-21T23:39:50.994Z,100.00
2023-01-21T23:42:22.039Z,100.00
2023-01-21T23:44:53.454Z,100.00
2023-01-21T23:47:26.112Z,100.00
2023-01-21T23:49:56.655Z,100.00
2023-01-21T23:52:27.122Z,100.00
2023-01-21T23:54:57.538Z,100.00
2023-01-21T23:57:28.056Z,100.00
2023-01-21T23:59:58.437Z,100.00
